createdAt,value
2019-03-19T00:00:20.286Z,84.25
2019-03-19T00:02:49.378Z,84.14
2019-03-19T00:05:18.463Z,83.80
2019-03-19T00:07:47.065Z,100.00
2019-03-19T00:10:16.190Z,83.73
2019-03-19T00:12:44.645Z,83.73
2019-03-19T00:15:14.263Z,83.70
2019-03-19T00:17:49.033Z,83.99
2019-03-19T00:20:17.576Z,83.99
2019-03-19T00:22:46.380Z,100.00
2019-03-19T00:25:15.422Z,84.23
2019-03-19T00:27:43.959Z,84.71
2019-03-19T00:30:19.027Z,100.00
2019-03-19T00:32:48.071Z,85.04
2019-03-19T00:35:17.118Z,85.33
2019-03-19T00:37:46.348Z,85.78
2019-03-19T00:40:15.853Z,100.00
2019-03-19T00:42:44.963Z,86.04
2019-03-19T00:45:14.926Z,86.33
2019-03-19T00:47:43.560Z,100.00
2019-03-19T00:50:13.869Z,86.52
2019-03-19T00:52:43.042Z,86.92
2019-03-19T00:55:12.157Z,100.00
2019-03-19T00:57:41.302Z,87.03
2019-03-19T01:00:12.712Z,100.00
2019-03-19T01:02:41.772Z,87.19
2019-03-19T01:05:10.966Z,100.00
2019-03-19T01:07:40.119Z,87.28
2019-03-19T01:10:17.501Z,87.77
2019-03-19T01:12:46.201Z,100.00
2019-03-19T01:15:15.615Z,88.08
2019-03-19T01:17:44.682Z,88.08
2019-03-19T01:20:15.552Z,88.08
2019-03-19T01:22:44.662Z,88.08
2019-03-19T01:25:13.977Z,88.08
2019-03-19T01:27:43.247Z,88.08
2019-03-19T01:30:14.716Z,88.08
2019-03-19T01:32:43.998Z,88.08
2019-03-19T01:35:13.328Z,88.08
2019-03-19T01:37:42.559Z,88.08
2019-03-19T01:40:12.608Z,88.08
2019-03-19T01:42:41.928Z,88.08
2019-03-19T01:45:14.493Z,88.08
2019-03-19T01:47:43.769Z,88.08
2019-03-19T01:50:14.310Z,88.08
2019-03-19T01:52:43.415Z,88.08
2019-03-19T01:55:13.848Z,88.08
2019-03-19T01:57:43.094Z,88.08
2019-03-19T02:00:17.314Z,88.08
2019-03-19T02:02:46.484Z,88.08
2019-03-19T02:05:15.794Z,88.08
2019-03-19T02:07:45.067Z,88.08
2019-03-19T02:10:14.993Z,88.08
2019-03-19T02:12:44.316Z,88.08
2019-03-19T02:15:17.650Z,88.08
2019-03-19T02:17:46.820Z,88.08
2019-03-19T02:20:17.368Z,88.08
2019-03-19T02:22:46.816Z,88.08
2019-03-19T02:25:16.026Z,88.08
2019-03-19T02:27:45.268Z,88.08
2019-03-19T02:30:15.501Z,88.08
2019-03-19T02:32:44.601Z,88.08
2019-03-19T02:35:14.239Z,88.08
2019-03-19T02:37:43.555Z,88.08
2019-03-19T02:40:17.455Z,88.08
2019-03-19T02:42:46.719Z,88.08
2019-03-19T02:45:17.221Z,88.08
2019-03-19T02:47:46.330Z,88.08
2019-03-19T02:50:18.718Z,88.08
2019-03-19T02:52:47.829Z,88.08
2019-03-19T02:55:16.956Z,88.08
2019-03-19T02:57:46.217Z,88.08
2019-03-19T03:00:17.431Z,88.08
2019-03-19T03:02:46.597Z,88.08
2019-03-19T03:05:17.332Z,88.08
2019-03-19T03:07:46.418Z,88.08
2019-03-19T03:10:15.878Z,88.08
2019-03-19T03:12:45.539Z,88.08
2019-03-19T03:15:15.125Z,88.08
2019-03-19T03:17:44.305Z,88.08
2019-03-19T03:20:15.790Z,88.08
2019-03-19T03:22:45.001Z,88.08
2019-03-19T03:25:15.310Z,88.08
2019-03-19T03:27:44.564Z,88.08
2019-03-19T03:30:24.123Z,88.08
2019-03-19T03:32:53.526Z,88.08
2019-03-19T03:35:22.770Z,88.08
2019-03-19T03:37:52.094Z,88.08
2019-03-19T03:40:21.403Z,88.08
2019-03-19T03:42:50.531Z,88.08
2019-03-19T03:45:20.406Z,88.08
2019-03-19T03:47:49.558Z,88.08
2019-03-19T03:50:19.467Z,88.08
2019-03-19T03:52:48.828Z,88.08
2019-03-19T03:55:20.027Z,88.08
2019-03-19T03:57:49.264Z,88.08
2019-03-19T04:00:23.629Z,88.08
2019-03-19T04:02:52.780Z,88.08
2019-03-19T04:05:21.984Z,88.08
2019-03-19T04:07:51.183Z,88.08
2019-03-19T04:10:20.545Z,88.08
2019-03-19T04:12:49.653Z,88.08
2019-03-19T04:15:19.314Z,88.08
2019-03-19T04:17:48.435Z,88.08
2019-03-19T04:20:19.834Z,88.08
2019-03-19T04:22:50.103Z,88.08
2019-03-19T04:25:19.258Z,88.08
2019-03-19T04:27:48.347Z,88.08
2019-03-19T04:30:19.968Z,88.08
2019-03-19T04:32:49.118Z,88.08
2019-03-19T04:35:18.209Z,88.08
2019-03-19T04:37:48.389Z,88.08
2019-03-19T04:40:17.563Z,88.08
2019-03-19T04:42:47.721Z,88.08
2019-03-19T04:45:17.534Z,88.08
2019-03-19T04:47:46.641Z,88.08
2019-03-19T04:50:18.643Z,88.08
2019-03-19T04:52:47.807Z,88.08
2019-03-19T04:55:17.589Z,88.08
2019-03-19T04:57:46.782Z,88.08
2019-03-19T05:00:19.062Z,100.00
2019-03-19T05:02:48.310Z,90.86
2019-03-19T05:05:16.908Z,100.00
2019-03-19T05:07:47.202Z,91.29
2019-03-19T05:10:17.214Z,91.08
2019-03-19T05:12:46.034Z,100.00
2019-03-19T05:15:15.259Z,91.08
2019-03-19T05:17:43.938Z,91.15
2019-03-19T05:20:18.432Z,91.15
2019-03-19T05:22:46.957Z,91.24
2019-03-19T05:25:15.504Z,91.23
2019-03-19T05:27:44.106Z,91.23
2019-03-19T05:30:16.893Z,91.33
2019-03-19T05:32:45.439Z,91.32
2019-03-19T05:35:14.159Z,91.66
2019-03-19T05:37:42.694Z,91.66
2019-03-19T05:40:14.424Z,91.45
2019-03-19T05:42:43.973Z,91.45
2019-03-19T05:45:14.519Z,90.48
2019-03-19T05:47:43.062Z,90.34
2019-03-19T05:50:20.630Z,90.34
2019-03-19T05:52:49.121Z,89.62
2019-03-19T05:55:17.681Z,89.62
2019-03-19T05:57:49.934Z,89.38
2019-03-19T06:00:19.182Z,89.38
2019-03-19T06:02:47.651Z,89.80
2019-03-19T06:05:16.324Z,89.83
2019-03-19T06:07:44.882Z,89.84
2019-03-19T06:10:14.259Z,89.98
2019-03-19T06:12:42.790Z,89.73
2019-03-19T06:15:15.724Z,89.50
2019-03-19T06:17:44.256Z,89.26
2019-03-19T06:20:16.942Z,88.77
2019-03-19T06:22:45.663Z,88.44
2019-03-19T06:25:14.487Z,88.17
2019-03-19T06:27:43.043Z,87.87
2019-03-19T06:30:20.624Z,87.61
2019-03-19T06:32:49.155Z,87.29
2019-03-19T06:35:17.621Z,87.00
2019-03-19T06:37:46.154Z,86.72
2019-03-19T06:40:15.831Z,86.46
2019-03-19T06:42:44.281Z,85.93
2019-03-19T06:45:17.168Z,85.93
2019-03-19T06:47:45.824Z,85.68
2019-03-19T06:50:18.888Z,85.35
2019-03-19T06:52:47.498Z,85.18
2019-03-19T06:55:21.630Z,85.05
2019-03-19T06:57:50.083Z,85.05
2019-03-19T07:00:20.016Z,84.34
2019-03-19T07:02:50.716Z,84.09
2019-03-19T07:05:20.114Z,84.10
2019-03-19T07:07:48.822Z,83.44
2019-03-19T07:10:18.425Z,83.10
2019-03-19T07:12:47.904Z,82.64
2019-03-19T07:15:18.471Z,82.68
2019-03-19T07:17:47.060Z,81.94
2019-03-19T07:20:20.555Z,81.84
2019-03-19T07:22:50.170Z,82.10
2019-03-19T07:25:18.768Z,82.60
2019-03-19T07:27:47.228Z,82.39
2019-03-19T07:30:19.827Z,81.83
2019-03-19T07:32:48.358Z,80.63
2019-03-19T07:35:17.001Z,80.29
2019-03-19T07:37:45.702Z,80.08
2019-03-19T07:40:16.023Z,80.05
2019-03-19T07:42:44.625Z,80.25
2019-03-19T07:45:23.840Z,79.19
2019-03-19T07:47:52.469Z,80.48
2019-03-19T07:50:24.449Z,78.86
2019-03-19T07:55:32.105Z,78.82
2019-03-19T07:58:00.764Z,78.58
2019-03-19T08:00:29.283Z,77.16
2019-03-19T08:02:57.770Z,76.03
2019-03-19T08:05:32.948Z,75.43
2019-03-19T08:07:56.481Z,75.38
2019-03-19T08:10:24.947Z,73.03
2019-03-19T08:12:53.459Z,72.44
2019-03-19T08:15:22.656Z,72.03
2019-03-19T08:17:51.185Z,69.50
2019-03-19T08:20:25.483Z,70.23
2019-03-19T08:22:55.385Z,69.69
2019-03-19T08:25:23.845Z,67.52
2019-03-19T08:27:52.310Z,67.08
2019-03-19T08:30:24.425Z,66.86
2019-03-19T08:32:52.556Z,65.70
2019-03-19T08:35:21.007Z,64.17
2019-03-19T08:37:49.588Z,62.82
2019-03-19T08:40:19.057Z,63.36
2019-03-19T08:42:47.537Z,60.23
2019-03-19T08:45:21.267Z,59.56
2019-03-19T08:47:49.829Z,60.32
2019-03-19T08:50:23.293Z,58.49
2019-03-19T08:52:51.834Z,59.01
2019-03-19T08:55:20.350Z,56.14
2019-03-19T08:57:48.868Z,55.99
2019-03-19T09:00:26.327Z,55.54
2019-03-19T09:02:54.842Z,55.21
2019-03-19T09:05:23.313Z,55.92
2019-03-19T09:07:52.067Z,55.95
2019-03-19T09:10:21.328Z,54.91
2019-03-19T09:12:49.789Z,53.31
2019-03-19T09:15:22.982Z,53.01
2019-03-19T09:17:52.518Z,54.16
2019-03-19T09:20:21.119Z,54.74
2019-03-19T09:22:49.725Z,55.70
2019-03-19T09:25:18.279Z,54.75
2019-03-19T09:27:46.720Z,54.39
2019-03-19T09:30:22.481Z,55.18
2019-03-19T09:32:51.021Z,56.65
2019-03-19T09:35:19.542Z,55.41
2019-03-19T09:37:57.820Z,54.71
2019-03-19T09:40:21.365Z,55.29
2019-03-19T09:42:50.772Z,55.33
2019-03-19T09:45:19.513Z,55.97
2019-03-19T09:47:48.991Z,56.18
2019-03-19T09:50:27.646Z,56.90
2019-03-19T09:52:56.117Z,56.91
2019-03-19T09:55:26.373Z,58.21
2019-03-19T09:57:54.988Z,57.00
2019-03-19T10:00:24.096Z,57.56
2019-03-19T10:02:52.788Z,58.58
2019-03-19T10:05:21.426Z,59.15
2019-03-19T10:07:50.550Z,56.82
2019-03-19T10:10:23.383Z,57.48
2019-03-19T10:12:52.197Z,57.36
2019-03-19T10:15:20.999Z,56.01
2019-03-19T10:17:49.452Z,56.73
2019-03-19T10:20:23.404Z,56.44
2019-03-19T10:22:51.877Z,56.32
2019-03-19T10:25:20.325Z,55.31
2019-03-19T10:27:48.963Z,56.34
2019-03-19T10:30:21.605Z,53.82
2019-03-19T10:32:50.289Z,54.28
2019-03-19T10:35:19.671Z,53.98
2019-03-19T10:37:48.201Z,54.45
2019-03-19T10:40:20.360Z,53.67
2019-03-19T10:42:49.069Z,52.99
2019-03-19T10:45:21.587Z,54.36
2019-03-19T10:47:50.107Z,52.36
2019-03-19T10:50:23.023Z,52.85
2019-03-19T10:52:51.481Z,53.62
2019-03-19T10:55:20.295Z,53.39
2019-03-19T10:57:48.927Z,53.92
2019-03-19T11:00:19.802Z,53.88
2019-03-19T11:02:49.597Z,52.19
2019-03-19T11:05:18.755Z,54.31
2019-03-19T11:07:47.303Z,55.74
2019-03-19T11:10:16.434Z,58.31
2019-03-19T11:12:45.308Z,59.33
2019-03-19T11:15:18.360Z,57.91
2019-03-19T11:17:47.966Z,58.88
2019-03-19T11:20:20.226Z,59.41
2019-03-19T11:22:48.817Z,59.52
2019-03-19T11:25:26.481Z,60.72
2019-03-19T11:27:54.937Z,60.78
2019-03-19T11:30:25.676Z,61.82
2019-03-19T11:32:54.515Z,61.02
2019-03-19T11:35:23.310Z,61.52
2019-03-19T11:37:51.789Z,58.86
2019-03-19T11:40:21.482Z,54.71
2019-03-19T11:42:50.772Z,55.96
2019-03-19T11:45:22.355Z,55.94
2019-03-19T11:47:50.942Z,54.55
2019-03-19T11:50:21.995Z,55.42
2019-03-19T11:52:51.026Z,55.51
2019-03-19T11:55:19.812Z,56.91
2019-03-19T11:57:48.428Z,57.66
2019-03-19T12:00:26.540Z,58.70
2019-03-19T12:02:55.013Z,58.21
2019-03-19T12:05:23.478Z,59.75
2019-03-19T12:07:52.076Z,60.04
2019-03-19T12:10:20.598Z,59.32
2019-03-19T12:12:49.116Z,59.96
2019-03-19T12:15:17.788Z,59.21
2019-03-19T12:17:48.720Z,58.19
2019-03-19T12:20:20.624Z,58.22
2019-03-19T12:22:49.900Z,57.88
2019-03-19T12:25:18.496Z,58.63
2019-03-19T12:27:47.022Z,57.48
2019-03-19T12:30:22.454Z,56.85
2019-03-19T12:32:48.327Z,55.53
2019-03-19T12:35:18.444Z,54.75
2019-03-19T12:37:47.151Z,53.34
2019-03-19T12:40:19.895Z,51.38
2019-03-19T12:42:48.436Z,49.44
2019-03-19T12:45:22.416Z,50.14
2019-03-19T12:47:50.953Z,51.76
2019-03-19T12:50:22.624Z,52.21
2019-03-19T12:52:51.227Z,54.64
2019-03-19T12:55:19.683Z,55.01
2019-03-19T12:57:48.146Z,54.96
2019-03-19T13:00:33.597Z,53.88
2019-03-19T13:02:54.819Z,54.35
2019-03-19T13:05:23.604Z,53.68
2019-03-19T13:07:52.366Z,54.72
2019-03-19T13:10:22.090Z,53.33
2019-03-19T13:12:50.739Z,52.00
2019-03-19T13:15:20.347Z,51.50
2019-03-19T13:17:48.951Z,51.46
2019-03-19T13:20:18.538Z,50.03
2019-03-19T13:22:47.227Z,50.39
2019-03-19T13:25:20.810Z,49.76
2019-03-19T13:27:49.300Z,49.56
2019-03-19T13:30:22.689Z,50.12
2019-03-19T13:32:51.151Z,47.44
2019-03-19T13:35:19.627Z,46.13
2019-03-19T13:37:48.244Z,47.45
2019-03-19T13:40:20.128Z,45.58
2019-03-19T13:42:50.498Z,44.39
2019-03-19T13:45:23.041Z,44.17
2019-03-19T13:47:51.596Z,44.92
2019-03-19T13:50:20.789Z,43.83
2019-03-19T13:52:49.468Z,44.34
2019-03-19T13:55:20.019Z,45.06
2019-03-19T13:57:48.478Z,47.10
2019-03-19T14:00:19.078Z,46.02
2019-03-19T14:02:47.532Z,45.31
2019-03-19T14:05:16.843Z,44.20
2019-03-19T14:07:45.582Z,45.36
2019-03-19T14:10:15.283Z,45.20
2019-03-19T14:12:43.724Z,45.12
2019-03-19T14:15:15.014Z,44.93
2019-03-19T14:17:43.686Z,45.75
2019-03-19T14:20:14.313Z,42.55
2019-03-19T14:22:45.473Z,39.96
2019-03-19T14:25:16.140Z,38.99
2019-03-19T14:27:44.719Z,39.08
2019-03-19T14:30:22.875Z,39.79
2019-03-19T14:32:51.311Z,39.93
2019-03-19T14:35:19.937Z,38.68
2019-03-19T14:37:48.557Z,34.54
2019-03-19T14:40:23.947Z,32.55
2019-03-19T14:42:52.432Z,31.04
2019-03-19T14:45:21.089Z,30.09
2019-03-19T14:47:49.877Z,29.55
2019-03-19T14:50:23.492Z,28.99
2019-03-19T14:52:52.303Z,27.47
2019-03-19T14:55:20.761Z,26.24
2019-03-19T14:57:50.941Z,26.68
2019-03-19T15:00:23.278Z,29.20
2019-03-19T15:02:51.916Z,31.80
2019-03-19T15:05:22.658Z,34.52
2019-03-19T15:07:51.296Z,38.71
2019-03-19T15:10:23.836Z,37.76
2019-03-19T15:12:52.434Z,36.52
2019-03-19T15:15:22.136Z,34.65
2019-03-19T15:17:50.678Z,32.84
2019-03-19T15:20:23.853Z,31.26
2019-03-19T15:22:52.389Z,30.19
2019-03-19T15:25:20.880Z,30.73
2019-03-19T15:27:49.493Z,34.33
2019-03-19T15:30:18.808Z,36.70
2019-03-19T15:32:47.360Z,40.56
2019-03-19T15:35:16.082Z,42.65
2019-03-19T15:37:44.613Z,40.41
2019-03-19T15:44:10.042Z,39.02
2019-03-19T15:46:39.387Z,39.32
2019-03-19T15:49:07.945Z,41.40
2019-03-19T15:51:36.498Z,43.65
2019-03-19T15:54:05.040Z,45.82
2019-03-19T15:56:33.498Z,47.90
2019-03-19T15:59:02.189Z,50.30
2019-03-19T16:01:40.078Z,53.03
2019-03-19T16:04:00.931Z,53.88
2019-03-19T16:06:29.392Z,55.39
2019-03-19T16:08:58.906Z,56.18
2019-03-19T16:11:27.365Z,56.23
2019-03-19T16:13:55.869Z,55.87
2019-03-19T16:16:24.323Z,56.74
2019-03-19T16:18:53.811Z,57.34
2019-03-19T16:21:22.377Z,57.59
2019-03-19T16:23:50.877Z,57.85
2019-03-19T16:26:19.401Z,58.62
2019-03-19T16:28:48.027Z,59.40
2019-03-19T16:31:16.621Z,59.98
2019-03-19T16:33:45.083Z,60.68
2019-03-19T16:36:13.551Z,60.95
2019-03-19T16:38:42.031Z,61.66
2019-03-19T16:41:10.673Z,62.69
2019-03-19T16:43:39.165Z,63.32
2019-03-19T16:46:07.667Z,64.10
2019-03-19T16:48:36.291Z,64.86
2019-03-19T16:51:04.834Z,65.03
2019-03-19T16:53:33.444Z,65.04
2019-03-19T16:56:02.016Z,65.38
2019-03-19T16:58:30.456Z,65.70
2019-03-19T17:00:59.041Z,65.75
2019-03-19T17:03:27.615Z,66.06
2019-03-19T17:05:56.119Z,66.41
2019-03-19T17:08:24.578Z,66.50
2019-03-19T17:10:53.065Z,66.58
2019-03-19T17:13:21.548Z,66.53
2019-03-19T17:15:50.047Z,67.04
2019-03-19T17:18:18.563Z,67.69
2019-03-19T17:20:48.028Z,68.14
2019-03-19T17:23:16.489Z,68.23
2019-03-19T17:25:45.026Z,68.18
2019-03-19T17:28:22.166Z,68.22
2019-03-19T17:30:44.688Z,68.48
2019-03-19T17:33:13.224Z,68.48
2019-03-19T17:35:41.749Z,68.44
2019-03-19T17:38:10.209Z,68.38
2019-03-19T17:40:41.696Z,68.70
2019-03-19T17:43:08.922Z,68.95
2019-03-19T17:45:37.409Z,69.37
2019-03-19T17:48:15.774Z,69.72
2019-03-19T17:50:41.491Z,69.83
2019-03-19T17:53:09.948Z,69.74
2019-03-19T17:55:40.430Z,69.53
2019-03-19T17:58:09.024Z,69.72
2019-03-19T18:00:44.685Z,69.94
2019-03-19T18:03:14.185Z,70.08
2019-03-19T18:05:42.672Z,69.97
2019-03-19T18:08:11.134Z,69.63
2019-03-19T18:10:39.773Z,69.33
2019-03-19T18:13:08.235Z,69.14
2019-03-19T18:15:36.716Z,68.96
2019-03-19T18:18:05.405Z,68.79
2019-03-19T18:20:35.878Z,68.98
2019-03-19T18:23:04.504Z,69.31
2019-03-19T18:25:33.020Z,69.62
2019-03-19T18:28:01.481Z,69.76
2019-03-19T18:30:30.012Z,69.95
2019-03-19T18:32:58.499Z,70.16
2019-03-19T18:35:27.052Z,70.44
2019-03-19T18:37:55.514Z,70.67
2019-03-19T18:40:24.072Z,71.73
2019-03-19T18:42:52.604Z,72.45
2019-03-19T18:45:25.333Z,73.49
2019-03-19T18:47:53.797Z,74.24
2019-03-19T18:53:03.295Z,75.79
2019-03-19T18:58:10.066Z,76.59
2019-03-19T19:00:38.542Z,76.59
2019-03-19T19:03:07.076Z,76.10
2019-03-19T19:05:36.185Z,76.13
2019-03-19T19:08:04.764Z,100.00
2019-03-19T19:10:33.892Z,76.40
2019-03-19T19:13:04.295Z,100.00
2019-03-19T19:15:35.400Z,77.60
2019-03-19T19:18:04.716Z,77.60
2019-03-19T19:20:33.824Z,77.60
2019-03-19T19:23:03.140Z,77.60
2019-03-19T19:25:32.315Z,77.60
2019-03-19T19:28:01.430Z,77.60
2019-03-19T19:30:34.066Z,77.60
2019-03-19T19:33:03.193Z,77.60
2019-03-19T19:35:32.290Z,77.60
2019-03-19T19:38:03.403Z,77.60
2019-03-19T19:40:32.231Z,77.60
2019-03-19T19:43:01.436Z,77.60
2019-03-19T19:45:30.541Z,77.60
2019-03-19T19:47:59.689Z,77.60
2019-03-19T19:50:28.799Z,77.60
2019-03-19T19:52:57.916Z,77.60
2019-03-19T19:55:27.010Z,77.60
2019-03-19T19:57:56.239Z,77.60
2019-03-19T20:00:25.504Z,77.60
2019-03-19T20:03:12.377Z,77.60
2019-03-19T20:05:38.255Z,77.60
2019-03-19T20:08:07.476Z,77.60
2019-03-19T20:10:37.617Z,77.60
2019-03-19T20:13:08.711Z,77.60
2019-03-19T20:15:37.923Z,77.60
2019-03-19T20:18:07.108Z,77.60
2019-03-19T20:20:36.253Z,77.60
2019-03-19T20:23:17.838Z,77.60
2019-03-19T20:25:46.982Z,77.60
2019-03-19T20:28:18.189Z,77.60
2019-03-19T20:30:47.333Z,77.60
2019-03-19T20:33:24.695Z,77.60
2019-03-19T20:35:47.401Z,77.60
2019-03-19T20:38:16.580Z,77.60
2019-03-19T20:40:45.802Z,77.60
2019-03-19T20:43:15.029Z,77.60
2019-03-19T20:45:44.207Z,77.60
2019-03-19T20:48:13.423Z,77.60
2019-03-19T20:50:42.602Z,77.60
2019-03-19T20:53:11.859Z,77.60
2019-03-19T20:55:41.115Z,77.60
2019-03-19T20:58:10.301Z,77.60
2019-03-19T21:00:39.547Z,77.60
2019-03-19T21:03:08.806Z,77.60
2019-03-19T21:05:37.969Z,77.60
2019-03-19T21:08:07.181Z,77.60
2019-03-19T21:10:36.371Z,77.60
2019-03-19T21:13:05.621Z,77.60
2019-03-19T21:15:35.955Z,77.60
2019-03-19T21:18:05.192Z,77.60
2019-03-19T21:20:34.381Z,77.60
2019-03-19T21:23:03.612Z,77.60
2019-03-19T21:25:32.816Z,77.60
2019-03-19T21:28:02.038Z,77.60
2019-03-19T21:30:31.248Z,77.60
2019-03-19T21:33:00.457Z,77.60
2019-03-19T21:35:29.743Z,77.60
2019-03-19T21:37:58.991Z,77.60
2019-03-19T21:40:28.216Z,77.60
2019-03-19T21:42:57.444Z,77.60
2019-03-19T21:45:26.667Z,77.60
2019-03-19T21:47:56.127Z,77.60
2019-03-19T21:50:26.083Z,77.60
2019-03-19T21:52:55.353Z,77.60
2019-03-19T21:55:24.587Z,77.60
2019-03-19T21:57:53.813Z,77.60
2019-03-19T22:00:24.585Z,77.60
2019-03-19T22:02:53.937Z,77.60
2019-03-19T22:05:23.175Z,77.60
2019-03-19T22:07:52.450Z,77.60
2019-03-19T22:10:22.765Z,77.60
2019-03-19T22:12:52.302Z,77.60
2019-03-19T22:15:23.837Z,77.60
2019-03-19T22:17:54.157Z,77.60
2019-03-19T22:20:23.478Z,77.60
2019-03-19T22:22:52.825Z,77.60
2019-03-19T22:25:22.090Z,77.60
2019-03-19T22:27:51.348Z,77.60
2019-03-19T22:30:21.624Z,77.60
2019-03-19T22:32:50.941Z,77.60
2019-03-19T22:35:20.161Z,77.60
2019-03-19T22:37:49.450Z,77.60
2019-03-19T22:40:19.171Z,77.60
2019-03-19T22:42:48.467Z,77.60
2019-03-19T22:45:18.677Z,77.60
2019-03-19T22:47:48.300Z,77.60
2019-03-19T22:50:18.594Z,77.60
2019-03-19T22:52:48.308Z,77.60
2019-03-19T22:55:28.194Z,77.60
2019-03-19T22:57:48.830Z,77.60
2019-03-19T23:00:38.118Z,77.60
2019-03-19T23:03:08.139Z,77.60
2019-03-19T23:05:37.459Z,77.60
2019-03-19T23:08:06.845Z,77.60
2019-03-19T23:10:36.467Z,77.60
2019-03-19T23:13:05.986Z,77.60
2019-03-19T23:15:35.396Z,77.60
2019-03-19T23:18:05.705Z,77.60
2019-03-19T23:20:35.106Z,77.60
2019-03-19T23:23:04.617Z,77.60
2019-03-19T23:25:33.932Z,77.60
2019-03-19T23:28:03.383Z,77.60
2019-03-19T23:30:32.747Z,77.60
2019-03-19T23:33:02.050Z,77.60
2019-03-19T23:35:31.369Z,77.60
2019-03-19T23:38:00.698Z,77.60
2019-03-19T23:40:30.002Z,77.60
2019-03-19T23:42:59.281Z,77.60
2019-03-19T23:45:28.617Z,77.60
2019-03-19T23:47:57.909Z,77.60
2019-03-19T23:50:27.221Z,77.60
2019-03-19T23:52:57.554Z,77.60
2019-03-19T23:55:26.853Z,77.60
2019-03-19T23:57:56.200Z,77.60
